sensor_id;sensor_type;location;lat;lon;timestamp;temperature;humidity
13203;DHT22;6666;51.626;7.530;2024-02-23T00:01:36;7.60;94.90
13203;DHT22;6666;51.626;7.530;2024-02-23T00:04:04;7.40;99.90
13203;DHT22;6666;51.626;7.530;2024-02-23T00:06:34;7.30;99.90
13203;DHT22;6666;51.626;7.530;2024-02-23T00:09:04;7.00;99.90
13203;DHT22;6666;51.626;7.530;2024-02-23T00:11:32;7.10;99.90
13203;DHT22;6666;51.626;7.530;2024-02-23T00:14:01;6.90;99.90
13203;DHT22;6666;51.626;7.530;2024-02-23T00:16:30;6.90;99.90
13203;DHT22;6666;51.626;7.530;2024-02-23T00:18:59;6.90;99.90
13203;DHT22;6666;51.626;7.530;2024-02-23T00:21:27;6.80;99.90
13203;DHT22;6666;51.626;7.530;2024-02-23T00:23:55;6.80;99.90
13203;DHT22;6666;51.626;7.530;2024-02-23T00:26:23;6.70;99.90
13203;DHT22;6666;51.626;7.530;2024-02-23T00:31:29;6.70;99.90
13203;DHT22;6666;51.626;7.530;2024-02-23T00:33:59;6.60;99.90
13203;DHT22;6666;51.626;7.530;2024-02-23T00:36:27;6.60;99.90
13203;DHT22;6666;51.626;7.530;2024-02-23T00:38:56;6.70;99.90
13203;DHT22;6666;51.626;7.530;2024-02-23T00:41:24;6.60;99.90
13203;DHT22;6666;51.626;7.530;2024-02-23T00:43:52;6.50;99.90
13203;DHT22;6666;51.626;7.530;2024-02-23T00:46:20;6.50;99.90
13203;DHT22;6666;51.626;7.530;2024-02-23T00:48:48;6.50;99.90
13203;DHT22;6666;51.626;7.530;2024-02-23T00:51:18;6.50;99.90
13203;DHT22;6666;51.626;7.530;2024-02-23T00:53:46;6.60;99.90
13203;DHT22;6666;51.626;7.530;2024-02-23T00:56:14;6.50;99.90
13203;DHT22;6666;51.626;7.530;2024-02-23T00:58:43;6.50;99.90
13203;DHT22;6666;51.626;7.530;2024-02-23T01:01:11;6.40;99.90
13203;DHT22;6666;51.626;7.530;2024-02-23T01:03:39;6.40;99.90
13203;DHT22;6666;51.626;7.530;2024-02-23T01:06:08;6.40;99.90
13203;DHT22;6666;51.626;7.530;2024-02-23T01:08:37;6.40;99.90
13203;DHT22;6666;51.626;7.530;2024-02-23T01:11:07;6.40;99.90
13203;DHT22;6666;51.626;7.530;2024-02-23T01:13:35;6.40;99.90
13203;DHT22;6666;51.626;7.530;2024-02-23T01:16:03;6.40;99.90
13203;DHT22;6666;51.626;7.530;2024-02-23T01:18:32;6.40;99.90
13203;DHT22;6666;51.626;7.530;2024-02-23T01:21:00;6.40;99.90
13203;DHT22;6666;51.626;7.530;2024-02-23T01:23:28;6.50;99.90
13203;DHT22;6666;51.626;7.530;2024-02-23T01:25:57;6.50;90.80
13203;DHT22;6666;51.626;7.530;2024-02-23T01:28:27;6.50;90.40
13203;DHT22;6666;51.626;7.530;2024-02-23T01:30:55;6.50;46.60
13203;DHT22;6666;51.626;7.530;2024-02-23T01:33:24;6.50;25.40
13203;DHT22;6666;51.626;7.530;2024-02-23T01:35:52;6.50;46.30
13203;DHT22;6666;51.626;7.530;2024-02-23T01:38:20;6.50;1.00
13203;DHT22;6666;51.626;7.530;2024-02-23T01:40:49;6.50;1.00
13203;DHT22;6666;51.626;7.530;2024-02-23T01:43:18;6.40;1.00
13203;DHT22;6666;51.626;7.530;2024-02-23T01:45:46;6.50;1.00
13203;DHT22;6666;51.626;7.530;2024-02-23T01:48:14;6.50;1.00
13203;DHT22;6666;51.626;7.530;2024-02-23T01:50:43;6.50;1.00
13203;DHT22;6666;51.626;7.530;2024-02-23T01:53:12;6.60;5.70
13203;DHT22;6666;51.626;7.530;2024-02-23T01:55:41;6.60;1.00
13203;DHT22;6666;51.626;7.530;2024-02-23T01:58:09;6.60;1.00
13203;DHT22;6666;51.626;7.530;2024-02-23T02:00:38;6.60;1.00
13203;DHT22;6666;51.626;7.530;2024-02-23T02:03:08;6.60;1.00
13203;DHT22;6666;51.626;7.530;2024-02-23T02:05:39;6.50;1.00
13203;DHT22;6666;51.626;7.530;2024-02-23T02:08:07;6.50;1.00
13203;DHT22;6666;51.626;7.530;2024-02-23T02:10:35;6.50;1.00
13203;DHT22;6666;51.626;7.530;2024-02-23T02:13:04;6.40;1.00
13203;DHT22;6666;51.626;7.530;2024-02-23T02:15:32;6.50;1.00
13203;DHT22;6666;51.626;7.530;2024-02-23T02:18:02;6.60;1.00
13203;DHT22;6666;51.626;7.530;2024-02-23T02:20:32;6.60;1.00
13203;DHT22;6666;51.626;7.530;2024-02-23T02:23:01;6.60;1.00
13203;DHT22;6666;51.626;7.530;2024-02-23T02:25:30;6.60;1.00
13203;DHT22;6666;51.626;7.530;2024-02-23T02:27:58;6.60;1.00
13203;DHT22;6666;51.626;7.530;2024-02-23T02:30:26;6.60;1.00
13203;DHT22;6666;51.626;7.530;2024-02-23T02:32:54;6.70;1.00
13203;DHT22;6666;51.626;7.530;2024-02-23T02:35:23;6.80;1.00
13203;DHT22;6666;51.626;7.530;2024-02-23T02:37:52;6.80;1.00
13203;DHT22;6666;51.626;7.530;2024-02-23T02:40:20;6.80;1.00
13203;DHT22;6666;51.626;7.530;2024-02-23T02:42:48;6.70;1.00
13203;DHT22;6666;51.626;7.530;2024-02-23T02:45:16;6.80;1.00
13203;DHT22;6666;51.626;7.530;2024-02-23T02:47:46;6.70;1.00
13203;DHT22;6666;51.626;7.530;2024-02-23T02:50:15;6.70;1.00
13203;DHT22;6666;51.626;7.530;2024-02-23T02:52:44;6.70;1.00
13203;DHT22;6666;51.626;7.530;2024-02-23T02:55:13;6.60;1.00
13203;DHT22;6666;51.626;7.530;2024-02-23T02:57:41;6.60;1.00
13203;DHT22;6666;51.626;7.530;2024-02-23T03:00:10;6.60;1.00
13203;DHT22;6666;51.626;7.530;2024-02-23T03:02:39;6.60;1.00
13203;DHT22;6666;51.626;7.530;2024-02-23T03:05:07;6.60;1.00
13203;DHT22;6666;51.626;7.530;2024-02-23T03:07:36;6.70;1.00
13203;DHT22;6666;51.626;7.530;2024-02-23T03:10:06;6.70;1.00
13203;DHT22;6666;51.626;7.530;2024-02-23T03:12:34;6.70;1.00
13203;DHT22;6666;51.626;7.530;2024-02-23T03:15:03;6.70;1.00
13203;DHT22;6666;51.626;7.530;2024-02-23T03:17:32;6.60;1.00
13203;DHT22;6666;51.626;7.530;2024-02-23T03:20:00;6.70;99.90
13203;DHT22;6666;51.626;7.530;2024-02-23T03:22:32;6.70;1.00
13203;DHT22;6666;51.626;7.530;2024-02-23T03:25:00;6.70;1.00
13203;DHT22;6666;51.626;7.530;2024-02-23T03:27:36;6.70;1.00
13203;DHT22;6666;51.626;7.530;2024-02-23T03:30:06;6.60;1.00
13203;DHT22;6666;51.626;7.530;2024-02-23T03:32:35;6.60;1.00
13203;DHT22;6666;51.626;7.530;2024-02-23T03:35:06;6.50;1.00
13203;DHT22;6666;51.626;7.530;2024-02-23T03:37:35;6.50;1.00
13203;DHT22;6666;51.626;7.530;2024-02-23T03:40:04;6.60;1.00
13203;DHT22;6666;51.626;7.530;2024-02-23T03:42:32;6.60;1.00
13203;DHT22;6666;51.626;7.530;2024-02-23T03:45:02;6.50;1.00
13203;DHT22;6666;51.626;7.530;2024-02-23T03:47:30;6.50;1.00
13203;DHT22;6666;51.626;7.530;2024-02-23T03:49:58;6.40;1.00
13203;DHT22;6666;51.626;7.530;2024-02-23T03:52:26;6.40;1.00
13203;DHT22;6666;51.626;7.530;2024-02-23T03:54:55;6.30;99.90
13203;DHT22;6666;51.626;7.530;2024-02-23T03:57:23;6.40;99.90
13203;DHT22;6666;51.626;7.530;2024-02-23T03:59:54;6.30;99.90
13203;DHT22;6666;51.626;7.530;2024-02-23T04:02:23;6.20;99.90
13203;DHT22;6666;51.626;7.530;2024-02-23T04:04:52;6.30;99.90
13203;DHT22;6666;51.626;7.530;2024-02-23T04:07:21;6.30;99.90
13203;DHT22;6666;51.626;7.530;2024-02-23T04:09:49;6.30;99.90
13203;DHT22;6666;51.626;7.530;2024-02-23T04:12:19;6.20;99.90
13203;DHT22;6666;51.626;7.530;2024-02-23T04:14:48;6.30;99.90
13203;DHT22;6666;51.626;7.530;2024-02-23T04:17:16;6.30;99.90
13203;DHT22;6666;51.626;7.530;2024-02-23T04:19:46;6.40;99.90
13203;DHT22;6666;51.626;7.530;2024-02-23T04:22:14;6.50;99.90
13203;DHT22;6666;51.626;7.530;2024-02-23T04:24:42;6.50;99.90
13203;DHT22;6666;51.626;7.530;2024-02-23T04:27:10;6.50;99.90
13203;DHT22;6666;51.626;7.530;2024-02-23T04:29:38;6.50;99.90
13203;DHT22;6666;51.626;7.530;2024-02-23T04:32:06;6.50;99.90
13203;DHT22;6666;51.626;7.530;2024-02-23T04:34:34;6.50;99.90
13203;DHT22;6666;51.626;7.530;2024-02-23T04:37:04;6.60;99.90
13203;DHT22;6666;51.626;7.530;2024-02-23T04:39:32;6.50;99.90
13203;DHT22;6666;51.626;7.530;2024-02-23T04:42:00;6.60;99.90
13203;DHT22;6666;51.626;7.530;2024-02-23T04:44:29;6.60;99.90
13203;DHT22;6666;51.626;7.530;2024-02-23T04:46:57;6.60;99.90
13203;DHT22;6666;51.626;7.530;2024-02-23T04:49:25;6.50;99.90
13203;DHT22;6666;51.626;7.530;2024-02-23T04:51:53;6.60;99.90
13203;DHT22;6666;51.626;7.530;2024-02-23T04:54:23;6.60;99.90
13203;DHT22;6666;51.626;7.530;2024-02-23T04:56:52;6.60;99.90
13203;DHT22;6666;51.626;7.530;2024-02-23T04:59:20;6.70;99.90
13203;DHT22;6666;51.626;7.530;2024-02-23T05:01:48;6.60;99.90
13203;DHT22;6666;51.626;7.530;2024-02-23T05:04:16;6.60;99.90
13203;DHT22;6666;51.626;7.530;2024-02-23T05:06:44;6.60;99.90
13203;DHT22;6666;51.626;7.530;2024-02-23T05:09:13;6.60;99.90
13203;DHT22;6666;51.626;7.530;2024-02-23T05:11:42;6.60;99.90
13203;DHT22;6666;51.626;7.530;2024-02-23T05:14:10;6.60;99.90
13203;DHT22;6666;51.626;7.530;2024-02-23T05:16:38;6.60;99.90
13203;DHT22;6666;51.626;7.530;2024-02-23T05:19:06;6.60;99.90
13203;DHT22;6666;51.626;7.530;2024-02-23T05:21:34;6.60;99.90
13203;DHT22;6666;51.626;7.530;2024-02-23T05:24:03;6.60;99.90
13203;DHT22;6666;51.626;7.530;2024-02-23T05:26:32;6.60;99.90
13203;DHT22;6666;51.626;7.530;2024-02-23T05:29:02;6.60;99.90
13203;DHT22;6666;51.626;7.530;2024-02-23T05:31:44;6.60;99.90
13203;DHT22;6666;51.626;7.530;2024-02-23T05:34:13;6.60;99.90
13203;DHT22;6666;51.626;7.530;2024-02-23T05:36:41;6.60;99.90
13203;DHT22;6666;51.626;7.530;2024-02-23T05:39:10;6.60;99.90
13203;DHT22;6666;51.626;7.530;2024-02-23T05:41:39;6.60;99.90
13203;DHT22;6666;51.626;7.530;2024-02-23T05:44:09;6.60;99.90
13203;DHT22;6666;51.626;7.530;2024-02-23T05:46:37;6.60;99.90
13203;DHT22;6666;51.626;7.530;2024-02-23T05:49:05;6.60;99.90
13203;DHT22;6666;51.626;7.530;2024-02-23T05:51:34;6.50;99.90
13203;DHT22;6666;51.626;7.530;2024-02-23T05:54:03;6.50;99.90
13203;DHT22;6666;51.626;7.530;2024-02-23T05:56:31;6.60;99.90
13203;DHT22;6666;51.626;7.530;2024-02-23T05:58:59;6.60;99.90
13203;DHT22;6666;51.626;7.530;2024-02-23T06:01:29;6.60;99.90
13203;DHT22;6666;51.626;7.530;2024-02-23T06:03:57;6.60;99.90
13203;DHT22;6666;51.626;7.530;2024-02-23T06:06:25;6.60;99.90
13203;DHT22;6666;51.626;7.530;2024-02-23T06:08:53;6.60;99.90
13203;DHT22;6666;51.626;7.530;2024-02-23T06:11:24;6.60;99.90
13203;DHT22;6666;51.626;7.530;2024-02-23T06:13:52;6.60;99.90
13203;DHT22;6666;51.626;7.530;2024-02-23T06:16:20;6.60;99.90
13203;DHT22;6666;51.626;7.530;2024-02-23T06:18:49;6.60;99.90
13203;DHT22;6666;51.626;7.530;2024-02-23T06:21:18;6.60;99.90
13203;DHT22;6666;51.626;7.530;2024-02-23T06:23:46;6.50;99.90
13203;DHT22;6666;51.626;7.530;2024-02-23T06:26:14;6.40;99.90
13203;DHT22;6666;51.626;7.530;2024-02-23T06:28:42;6.40;99.90
13203;DHT22;6666;51.626;7.530;2024-02-23T06:31:10;6.40;99.90
13203;DHT22;6666;51.626;7.530;2024-02-23T06:33:38;6.40;99.90
13203;DHT22;6666;51.626;7.530;2024-02-23T06:36:09;6.30;99.90
13203;DHT22;6666;51.626;7.530;2024-02-23T06:38:37;6.30;99.90
13203;DHT22;6666;51.626;7.530;2024-02-23T06:41:05;6.20;99.90
13203;DHT22;6666;51.626;7.530;2024-02-23T06:43:35;6.20;99.90
13203;DHT22;6666;51.626;7.530;2024-02-23T06:46:06;6.30;99.90
13203;DHT22;6666;51.626;7.530;2024-02-23T06:48:34;6.20;99.90
13203;DHT22;6666;51.626;7.530;2024-02-23T06:51:03;6.20;99.90
13203;DHT22;6666;51.626;7.530;2024-02-23T06:53:33;6.10;99.90
13203;DHT22;6666;51.626;7.530;2024-02-23T06:56:01;6.10;99.90
13203;DHT22;6666;51.626;7.530;2024-02-23T06:58:30;6.20;99.90
13203;DHT22;6666;51.626;7.530;2024-02-23T07:00:58;6.20;99.90
13203;DHT22;6666;51.626;7.530;2024-02-23T07:03:27;6.30;99.90
13203;DHT22;6666;51.626;7.530;2024-02-23T07:05:56;6.30;99.90
13203;DHT22;6666;51.626;7.530;2024-02-23T07:08:24;6.30;99.90
13203;DHT22;6666;51.626;7.530;2024-02-23T07:10:54;6.40;99.90
13203;DHT22;6666;51.626;7.530;2024-02-23T07:13:22;6.40;99.90
13203;DHT22;6666;51.626;7.530;2024-02-23T07:15:50;6.40;99.90
13203;DHT22;6666;51.626;7.530;2024-02-23T07:18:18;6.40;99.90
13203;DHT22;6666;51.626;7.530;2024-02-23T07:20:47;6.30;99.90
13203;DHT22;6666;51.626;7.530;2024-02-23T07:23:15;6.40;99.90
13203;DHT22;6666;51.626;7.530;2024-02-23T07:25:44;6.30;99.90
13203;DHT22;6666;51.626;7.530;2024-02-23T07:28:13;6.30;99.90
13203;DHT22;6666;51.626;7.530;2024-02-23T07:30:45;6.40;99.90
13203;DHT22;6666;51.626;7.530;2024-02-23T07:33:13;6.50;99.90
13203;DHT22;6666;51.626;7.530;2024-02-23T07:35:41;6.40;99.90
13203;DHT22;6666;51.626;7.530;2024-02-23T07:38:09;6.50;99.90
13203;DHT22;6666;51.626;7.530;2024-02-23T07:40:38;6.50;99.90
13203;DHT22;6666;51.626;7.530;2024-02-23T07:43:06;6.60;99.90
13203;DHT22;6666;51.626;7.530;2024-02-23T07:45:36;6.50;99.90
13203;DHT22;6666;51.626;7.530;2024-02-23T07:48:04;6.60;99.90
13203;DHT22;6666;51.626;7.530;2024-02-23T07:50:33;6.60;99.90
13203;DHT22;6666;51.626;7.530;2024-02-23T07:53:01;6.70;99.90
13203;DHT22;6666;51.626;7.530;2024-02-23T07:55:30;6.70;99.90
13203;DHT22;6666;51.626;7.530;2024-02-23T07:57:59;6.90;99.90
13203;DHT22;6666;51.626;7.530;2024-02-23T08:00:28;7.00;99.90
13203;DHT22;6666;51.626;7.530;2024-02-23T08:02:58;7.10;99.90
13203;DHT22;6666;51.626;7.530;2024-02-23T08:05:27;7.20;99.90
13203;DHT22;6666;51.626;7.530;2024-02-23T08:07:55;7.30;99.90
13203;DHT22;6666;51.626;7.530;2024-02-23T08:10:23;7.30;99.90
13203;DHT22;6666;51.626;7.530;2024-02-23T08:12:52;7.30;99.90
13203;DHT22;6666;51.626;7.530;2024-02-23T08:15:20;7.20;99.90
13203;DHT22;6666;51.626;7.530;2024-02-23T08:17:48;7.40;99.90
13203;DHT22;6666;51.626;7.530;2024-02-23T08:20:18;7.50;99.90
13203;DHT22;6666;51.626;7.530;2024-02-23T08:22:47;7.60;99.90
13203;DHT22;6666;51.626;7.530;2024-02-23T08:25:15;7.60;99.90
13203;DHT22;6666;51.626;7.530;2024-02-23T08:27:43;7.60;99.90
13203;DHT22;6666;51.626;7.530;2024-02-23T08:30:13;7.60;99.90
13203;DHT22;6666;51.626;7.530;2024-02-23T08:32:41;7.60;99.90
13203;DHT22;6666;51.626;7.530;2024-02-23T08:35:10;7.70;99.90
13203;DHT22;6666;51.626;7.530;2024-02-23T08:37:39;7.80;99.90
13203;DHT22;6666;51.626;7.530;2024-02-23T08:40:09;7.90;99.90
13203;DHT22;6666;51.626;7.530;2024-02-23T08:42:38;7.90;99.90
13203;DHT22;6666;51.626;7.530;2024-02-23T08:45:06;8.00;99.90
13203;DHT22;6666;51.626;7.530;2024-02-23T08:47:36;8.10;99.90
13203;DHT22;6666;51.626;7.530;2024-02-23T08:50:06;8.20;99.90
13203;DHT22;6666;51.626;7.530;2024-02-23T08:52:34;8.30;99.90
13203;DHT22;6666;51.626;7.530;2024-02-23T08:55:04;8.30;99.90
13203;DHT22;6666;51.626;7.530;2024-02-23T08:57:33;8.30;99.90
13203;DHT22;6666;51.626;7.530;2024-02-23T09:00:01;8.30;99.90
13203;DHT22;6666;51.626;7.530;2024-02-23T09:02:31;8.40;99.90
13203;DHT22;6666;51.626;7.530;2024-02-23T09:05:02;8.50;99.90
13203;DHT22;6666;51.626;7.530;2024-02-23T09:07:30;8.60;99.90
13203;DHT22;6666;51.626;7.530;2024-02-23T09:09:59;8.50;99.90
13203;DHT22;6666;51.626;7.530;2024-02-23T09:12:29;8.60;99.90
13203;DHT22;6666;51.626;7.530;2024-02-23T09:14:57;8.60;99.90
13203;DHT22;6666;51.626;7.530;2024-02-23T09:17:25;8.60;99.90
13203;DHT22;6666;51.626;7.530;2024-02-23T09:19:53;8.70;99.90
13203;DHT22;6666;51.626;7.530;2024-02-23T09:22:21;8.60;99.90
13203;DHT22;6666;51.626;7.530;2024-02-23T09:24:50;8.60;99.90
13203;DHT22;6666;51.626;7.530;2024-02-23T09:27:20;8.50;99.90
13203;DHT22;6666;51.626;7.530;2024-02-23T09:29:50;8.60;99.90
13203;DHT22;6666;51.626;7.530;2024-02-23T09:32:18;8.50;99.90
13203;DHT22;6666;51.626;7.530;2024-02-23T09:34:46;8.50;99.90
13203;DHT22;6666;51.626;7.530;2024-02-23T09:37:14;8.40;99.90
13203;DHT22;6666;51.626;7.530;2024-02-23T09:39:42;8.40;99.90
13203;DHT22;6666;51.626;7.530;2024-02-23T09:42:11;8.30;99.90
13203;DHT22;6666;51.626;7.530;2024-02-23T09:44:39;8.20;99.90
13203;DHT22;6666;51.626;7.530;2024-02-23T09:47:10;8.20;99.90
13203;DHT22;6666;51.626;7.530;2024-02-23T09:49:40;8.20;99.90
13203;DHT22;6666;51.626;7.530;2024-02-23T09:52:09;8.30;99.90
13203;DHT22;6666;51.626;7.530;2024-02-23T09:54:38;8.20;99.90
13203;DHT22;6666;51.626;7.530;2024-02-23T09:57:07;8.30;99.90
13203;DHT22;6666;51.626;7.530;2024-02-23T09:59:37;8.40;99.90
13203;DHT22;6666;51.626;7.530;2024-02-23T10:02:07;8.50;99.90
13203;DHT22;6666;51.626;7.530;2024-02-23T10:04:38;8.50;99.90
13203;DHT22;6666;51.626;7.530;2024-02-23T10:07:07;8.60;99.90
13203;DHT22;6666;51.626;7.530;2024-02-23T10:09:35;8.60;99.90
13203;DHT22;6666;51.626;7.530;2024-02-23T10:12:04;8.60;99.90
13203;DHT22;6666;51.626;7.530;2024-02-23T10:14:32;8.60;99.90
13203;DHT22;6666;51.626;7.530;2024-02-23T10:17:02;8.60;99.90
13203;DHT22;6666;51.626;7.530;2024-02-23T10:19:30;8.60;99.90
13203;DHT22;6666;51.626;7.530;2024-02-23T10:22:00;8.70;99.90
13203;DHT22;6666;51.626;7.530;2024-02-23T10:24:29;8.80;99.90
13203;DHT22;6666;51.626;7.530;2024-02-23T10:26:57;8.80;99.90
13203;DHT22;6666;51.626;7.530;2024-02-23T10:29:29;8.90;99.90
13203;DHT22;6666;51.626;7.530;2024-02-23T10:32:00;8.80;99.90
13203;DHT22;6666;51.626;7.530;2024-02-23T10:34:31;8.70;99.90
13203;DHT22;6666;51.626;7.530;2024-02-23T10:37:02;8.70;99.90
13203;DHT22;6666;51.626;7.530;2024-02-23T10:39:31;8.70;99.90
13203;DHT22;6666;51.626;7.530;2024-02-23T10:42:04;8.80;99.90
13203;DHT22;6666;51.626;7.530;2024-02-23T10:44:32;8.90;99.90
13203;DHT22;6666;51.626;7.530;2024-02-23T10:47:01;8.90;99.90
13203;DHT22;6666;51.626;7.530;2024-02-23T10:49:31;8.90;99.90
13203;DHT22;6666;51.626;7.530;2024-02-23T10:52:00;8.90;99.90
13203;DHT22;6666;51.626;7.530;2024-02-23T10:54:31;8.90;99.90
13203;DHT22;6666;51.626;7.530;2024-02-23T10:56:59;8.80;99.90
13203;DHT22;6666;51.626;7.530;2024-02-23T10:59:29;8.90;99.90
13203;DHT22;6666;51.626;7.530;2024-02-23T11:01:57;8.80;99.90
13203;DHT22;6666;51.626;7.530;2024-02-23T11:04:28;8.90;99.90
13203;DHT22;6666;51.626;7.530;2024-02-23T11:06:57;8.80;99.90
13203;DHT22;6666;51.626;7.530;2024-02-23T11:09:27;8.90;99.90
13203;DHT22;6666;51.626;7.530;2024-02-23T11:11:57;9.00;99.90
13203;DHT22;6666;51.626;7.530;2024-02-23T11:14:30;9.20;99.90
13203;DHT22;6666;51.626;7.530;2024-02-23T11:16:59;9.30;99.90
13203;DHT22;6666;51.626;7.530;2024-02-23T11:19:34;9.30;99.90
13203;DHT22;6666;51.626;7.530;2024-02-23T11:22:04;9.30;99.90
13203;DHT22;6666;51.626;7.530;2024-02-23T11:24:44;9.30;99.90
13203;DHT22;6666;51.626;7.530;2024-02-23T11:27:14;9.50;99.90
13203;DHT22;6666;51.626;7.530;2024-02-23T11:29:45;9.60;99.90
13203;DHT22;6666;51.626;7.530;2024-02-23T11:32:14;9.60;99.90
13203;DHT22;6666;51.626;7.530;2024-02-23T11:34:54;9.60;99.90
13203;DHT22;6666;51.626;7.530;2024-02-23T11:37:23;9.70;99.90
13203;DHT22;6666;51.626;7.530;2024-02-23T11:39:53;9.90;99.90
13203;DHT22;6666;51.626;7.530;2024-02-23T11:42:23;10.00;99.90
13203;DHT22;6666;51.626;7.530;2024-02-23T11:44:52;10.00;99.90
13203;DHT22;6666;51.626;7.530;2024-02-23T11:47:21;10.00;99.90
13203;DHT22;6666;51.626;7.530;2024-02-23T11:49:49;10.10;99.90
13203;DHT22;6666;51.626;7.530;2024-02-23T11:52:17;10.00;99.90
13203;DHT22;6666;51.626;7.530;2024-02-23T11:54:46;10.00;99.90
13203;DHT22;6666;51.626;7.530;2024-02-23T11:57:15;9.70;99.90
13203;DHT22;6666;51.626;7.530;2024-02-23T11:59:44;9.60;99.90
13203;DHT22;6666;51.626;7.530;2024-02-23T12:02:12;9.60;99.90
13203;DHT22;6666;51.626;7.530;2024-02-23T12:04:41;9.50;99.90
13203;DHT22;6666;51.626;7.530;2024-02-23T12:07:09;9.60;99.90
13203;DHT22;6666;51.626;7.530;2024-02-23T12:09:37;9.50;99.90
13203;DHT22;6666;51.626;7.530;2024-02-23T12:12:08;9.50;99.90
13203;DHT22;6666;51.626;7.530;2024-02-23T12:14:39;9.50;99.90
13203;DHT22;6666;51.626;7.530;2024-02-23T12:17:08;9.50;99.90
13203;DHT22;6666;51.626;7.530;2024-02-23T12:19:38;9.60;99.90
13203;DHT22;6666;51.626;7.530;2024-02-23T12:22:07;9.60;99.90
13203;DHT22;6666;51.626;7.530;2024-02-23T12:24:35;9.50;99.90
13203;DHT22;6666;51.626;7.530;2024-02-23T12:27:03;9.50;99.90
13203;DHT22;6666;51.626;7.530;2024-02-23T12:29:33;9.50;99.90
13203;DHT22;6666;51.626;7.530;2024-02-23T12:32:06;9.50;99.90
13203;DHT22;6666;51.626;7.530;2024-02-23T12:34:35;9.50;99.90
13203;DHT22;6666;51.626;7.530;2024-02-23T12:37:03;9.50;99.90
13203;DHT22;6666;51.626;7.530;2024-02-23T12:39:32;9.50;99.90
13203;DHT22;6666;51.626;7.530;2024-02-23T12:42:00;9.50;99.90
13203;DHT22;6666;51.626;7.530;2024-02-23T12:44:29;9.50;99.90
13203;DHT22;6666;51.626;7.530;2024-02-23T12:46:58;9.60;99.90
13203;DHT22;6666;51.626;7.530;2024-02-23T12:49:27;9.70;99.90
13203;DHT22;6666;51.626;7.530;2024-02-23T12:51:55;9.70;99.90
13203;DHT22;6666;51.626;7.530;2024-02-23T12:54:23;9.60;99.90
13203;DHT22;6666;51.626;7.530;2024-02-23T12:56:51;9.60;99.90
13203;DHT22;6666;51.626;7.530;2024-02-23T12:59:19;9.50;99.90
13203;DHT22;6666;51.626;7.530;2024-02-23T13:01:47;9.40;99.90
13203;DHT22;6666;51.626;7.530;2024-02-23T13:04:19;9.50;99.90
13203;DHT22;6666;51.626;7.530;2024-02-23T13:06:48;9.50;99.90
13203;DHT22;6666;51.626;7.530;2024-02-23T13:09:16;9.50;99.90
13203;DHT22;6666;51.626;7.530;2024-02-23T13:11:44;9.50;99.90
13203;DHT22;6666;51.626;7.530;2024-02-23T13:14:13;9.60;99.90
13203;DHT22;6666;51.626;7.530;2024-02-23T13:16:43;9.70;99.90
13203;DHT22;6666;51.626;7.530;2024-02-23T13:19:11;9.80;99.90
13203;DHT22;6666;51.626;7.530;2024-02-23T13:21:39;9.80;99.90
13203;DHT22;6666;51.626;7.530;2024-02-23T13:24:08;9.90;99.90
13203;DHT22;6666;51.626;7.530;2024-02-23T13:26:36;9.90;99.90
13203;DHT22;6666;51.626;7.530;2024-02-23T13:29:04;10.10;99.90
13203;DHT22;6666;51.626;7.530;2024-02-23T13:31:32;10.10;99.90
13203;DHT22;6666;51.626;7.530;2024-02-23T13:34:00;9.90;99.90
13203;DHT22;6666;51.626;7.530;2024-02-23T13:36:29;9.90;99.90
13203;DHT22;6666;51.626;7.530;2024-02-23T13:38:57;9.90;99.90
13203;DHT22;6666;51.626;7.530;2024-02-23T13:41:28;10.00;99.90
13203;DHT22;6666;51.626;7.530;2024-02-23T13:43:56;10.00;99.90
13203;DHT22;6666;51.626;7.530;2024-02-23T13:46:24;9.90;99.90
13203;DHT22;6666;51.626;7.530;2024-02-23T13:49:03;9.80;99.90
13203;DHT22;6666;51.626;7.530;2024-02-23T13:51:31;9.70;99.90
13203;DHT22;6666;51.626;7.530;2024-02-23T13:53:59;9.80;99.90
13203;DHT22;6666;51.626;7.530;2024-02-23T13:56:29;9.80;99.90
13203;DHT22;6666;51.626;7.530;2024-02-23T13:58:57;9.90;99.90
13203;DHT22;6666;51.626;7.530;2024-02-23T14:01:25;9.90;99.90
13203;DHT22;6666;51.626;7.530;2024-02-23T14:03:54;9.90;99.90
13203;DHT22;6666;51.626;7.530;2024-02-23T14:06:22;9.90;99.90
13203;DHT22;6666;51.626;7.530;2024-02-23T14:08:50;9.80;99.90
13203;DHT22;6666;51.626;7.530;2024-02-23T14:11:18;9.80;99.90
13203;DHT22;6666;51.626;7.530;2024-02-23T14:13:48;9.80;99.90
13203;DHT22;6666;51.626;7.530;2024-02-23T14:16:18;9.80;99.90
13203;DHT22;6666;51.626;7.530;2024-02-23T14:18:46;9.80;99.90
13203;DHT22;6666;51.626;7.530;2024-02-23T14:21:14;9.80;99.90
13203;DHT22;6666;51.626;7.530;2024-02-23T14:23:43;9.80;99.90
13203;DHT22;6666;51.626;7.530;2024-02-23T14:26:11;9.70;99.90
13203;DHT22;6666;51.626;7.530;2024-02-23T14:28:40;9.70;99.90
13203;DHT22;6666;51.626;7.530;2024-02-23T14:31:09;9.70;99.90
13203;DHT22;6666;51.626;7.530;2024-02-23T14:33:37;9.60;99.90
13203;DHT22;6666;51.626;7.530;2024-02-23T14:36:06;9.50;99.90
13203;DHT22;6666;51.626;7.530;2024-02-23T14:38:34;9.50;99.90
13203;DHT22;6666;51.626;7.530;2024-02-23T14:41:03;9.50;99.90
13203;DHT22;6666;51.626;7.530;2024-02-23T14:43:31;9.60;99.90
13203;DHT22;6666;51.626;7.530;2024-02-23T14:45:59;9.60;99.90
13203;DHT22;6666;51.626;7.530;2024-02-23T14:48:28;9.60;99.90
13203;DHT22;6666;51.626;7.530;2024-02-23T14:50:56;9.70;99.90
13203;DHT22;6666;51.626;7.530;2024-02-23T14:53:25;9.60;99.90
13203;DHT22;6666;51.626;7.530;2024-02-23T14:55:55;9.60;99.90
13203;DHT22;6666;51.626;7.530;2024-02-23T14:58:23;9.50;99.90
13203;DHT22;6666;51.626;7.530;2024-02-23T15:00:51;9.40;99.90
13203;DHT22;6666;51.626;7.530;2024-02-23T15:03:19;9.40;99.90
13203;DHT22;6666;51.626;7.530;2024-02-23T15:05:48;9.40;99.90
13203;DHT22;6666;51.626;7.530;2024-02-23T15:08:17;9.40;99.90
13203;DHT22;6666;51.626;7.530;2024-02-23T15:10:45;9.50;1.00
13203;DHT22;6666;51.626;7.530;2024-02-23T15:13:13;9.50;99.90
13203;DHT22;6666;51.626;7.530;2024-02-23T15:15:42;9.60;99.90
13203;DHT22;6666;51.626;7.530;2024-02-23T15:18:10;9.70;99.90
13203;DHT22;6666;51.626;7.530;2024-02-23T15:20:38;9.60;99.90
13203;DHT22;6666;51.626;7.530;2024-02-23T15:23:07;9.60;99.90
13203;DHT22;6666;51.626;7.530;2024-02-23T15:25:35;9.50;16.50
13203;DHT22;6666;51.626;7.530;2024-02-23T15:28:10;9.40;1.00
13203;DHT22;6666;51.626;7.530;2024-02-23T15:30:38;9.20;1.00
13203;DHT22;6666;51.626;7.530;2024-02-23T15:33:06;9.10;1.00
13203;DHT22;6666;51.626;7.530;2024-02-23T15:35:35;9.00;1.00
13203;DHT22;6666;51.626;7.530;2024-02-23T15:38:03;8.80;16.30
13203;DHT22;6666;51.626;7.530;2024-02-23T15:40:33;8.60;73.40
13203;DHT22;6666;51.626;7.530;2024-02-23T15:43:01;8.60;63.30
13203;DHT22;6666;51.626;7.530;2024-02-23T15:45:30;8.60;99.90
13203;DHT22;6666;51.626;7.530;2024-02-23T15:47:57;8.60;92.70
13203;DHT22;6666;51.626;7.530;2024-02-23T15:50:26;8.60;93.40
13203;DHT22;6666;51.626;7.530;2024-02-23T15:53:15;8.60;99.90
13203;DHT22;6666;51.626;7.530;2024-02-23T15:55:44;8.50;99.90
13203;DHT22;6666;51.626;7.530;2024-02-23T15:58:13;8.50;99.90
13203;DHT22;6666;51.626;7.530;2024-02-23T16:00:43;8.50;99.90
13203;DHT22;6666;51.626;7.530;2024-02-23T16:03:11;8.40;67.60
13203;DHT22;6666;51.626;7.530;2024-02-23T16:05:39;8.50;1.00
13203;DHT22;6666;51.626;7.530;2024-02-23T16:08:07;8.50;1.00
13203;DHT22;6666;51.626;7.530;2024-02-23T16:10:38;8.60;1.00
13203;DHT22;6666;51.626;7.530;2024-02-23T16:13:08;8.50;1.00
13203;DHT22;6666;51.626;7.530;2024-02-23T16:15:36;8.40;1.00
13203;DHT22;6666;51.626;7.530;2024-02-23T16:18:04;8.30;40.70